Terminal Aerodrome Forecast
Issued by NWS

Home | Current Version | Previous Version | Text Only | Print | Product List | Glossary On
Versions: 1 2 3 4 5 6 7 8 9 10
000
FTUS42 TJSJ 271100
TAFJPS
TAF
TJPS 271130Z 2712/2812 06005KT P6SM FEW030
     FM271500 14010KT P6SM FEW030 FEW060
     FM272330 VRB03KT P6SM FEW030
      AMD NOT SKED TIL 280300=

USA.gov is the U.S. government's official web portal to all federal, state and local government web resources and services.